sensor_id;sensor_type;location;lat;lon;timestamp;temperature;humidity
12276;DHT22;6200;48.144;11.424;2023-12-20T00:01:20;6.30;99.90
12276;DHT22;6200;48.144;11.424;2023-12-20T00:03:46;6.30;99.90
12276;DHT22;6200;48.144;11.424;2023-12-20T00:06:11;6.30;99.90
12276;DHT22;6200;48.144;11.424;2023-12-20T00:08:37;6.30;99.90
12276;DHT22;6200;48.144;11.424;2023-12-20T00:11:03;6.30;99.90
12276;DHT22;6200;48.144;11.424;2023-12-20T00:13:28;6.30;99.90
12276;DHT22;6200;48.144;11.424;2023-12-20T00:15:54;6.30;99.90
12276;DHT22;6200;48.144;11.424;2023-12-20T00:18:19;6.40;99.90
12276;DHT22;6200;48.144;11.424;2023-12-20T00:20:45;6.40;99.90
12276;DHT22;6200;48.144;11.424;2023-12-20T00:23:10;6.40;99.90
12276;DHT22;6200;48.144;11.424;2023-12-20T00:25:36;6.40;99.90
12276;DHT22;6200;48.144;11.424;2023-12-20T00:28:01;6.40;99.90
12276;DHT22;6200;48.144;11.424;2023-12-20T00:30:27;6.40;99.90
12276;DHT22;6200;48.144;11.424;2023-12-20T00:32:53;6.40;99.90
12276;DHT22;6200;48.144;11.424;2023-12-20T00:35:19;6.40;99.90
12276;DHT22;6200;48.144;11.424;2023-12-20T00:37:44;6.40;99.90
12276;DHT22;6200;48.144;11.424;2023-12-20T00:40:10;6.40;99.90
12276;DHT22;6200;48.144;11.424;2023-12-20T00:42:36;6.40;99.90
12276;DHT22;6200;48.144;11.424;2023-12-20T00:45:02;6.50;99.90
12276;DHT22;6200;48.144;11.424;2023-12-20T00:47:30;6.40;99.90
12276;DHT22;6200;48.144;11.424;2023-12-20T00:49:55;6.50;99.90
12276;DHT22;6200;48.144;11.424;2023-12-20T00:52:21;6.50;99.90
12276;DHT22;6200;48.144;11.424;2023-12-20T00:54:48;6.50;99.90
12276;DHT22;6200;48.144;11.424;2023-12-20T00:57:13;6.60;99.90
12276;DHT22;6200;48.144;11.424;2023-12-20T00:59:39;6.60;99.80
12276;DHT22;6200;48.144;11.424;2023-12-20T01:02:05;6.60;99.90
12276;DHT22;6200;48.144;11.424;2023-12-20T01:04:30;6.60;99.90
12276;DHT22;6200;48.144;11.424;2023-12-20T01:06:56;6.60;99.90
12276;DHT22;6200;48.144;11.424;2023-12-20T01:09:21;6.60;99.90
12276;DHT22;6200;48.144;11.424;2023-12-20T01:11:51;6.60;99.90
12276;DHT22;6200;48.144;11.424;2023-12-20T01:14:17;6.70;99.90
12276;DHT22;6200;48.144;11.424;2023-12-20T01:16:43;6.70;99.90
12276;DHT22;6200;48.144;11.424;2023-12-20T01:19:08;6.60;99.90
12276;DHT22;6200;48.144;11.424;2023-12-20T01:21:34;6.60;99.90
12276;DHT22;6200;48.144;11.424;2023-12-20T01:23:59;6.60;99.90
12276;DHT22;6200;48.144;11.424;2023-12-20T01:26:24;6.70;99.90
12276;DHT22;6200;48.144;11.424;2023-12-20T01:28:50;6.70;99.90
12276;DHT22;6200;48.144;11.424;2023-12-20T01:31:15;6.70;99.90
12276;DHT22;6200;48.144;11.424;2023-12-20T01:33:41;6.70;99.90
12276;DHT22;6200;48.144;11.424;2023-12-20T01:36:06;6.70;99.90
12276;DHT22;6200;48.144;11.424;2023-12-20T01:38:32;6.70;99.90
12276;DHT22;6200;48.144;11.424;2023-12-20T01:40:58;6.70;99.90
12276;DHT22;6200;48.144;11.424;2023-12-20T01:43:24;6.70;99.90
12276;DHT22;6200;48.144;11.424;2023-12-20T01:45:49;6.80;99.90
12276;DHT22;6200;48.144;11.424;2023-12-20T01:48:16;6.80;99.90
12276;DHT22;6200;48.144;11.424;2023-12-20T01:50:42;7.70;99.90
12276;DHT22;6200;48.144;11.424;2023-12-20T01:53:09;5.80;99.90
12276;DHT22;6200;48.144;11.424;2023-12-20T01:55:41;6.80;99.90
12276;DHT22;6200;48.144;11.424;2023-12-20T01:58:07;6.70;99.90
12276;DHT22;6200;48.144;11.424;2023-12-20T02:00:34;6.70;99.90
12276;DHT22;6200;48.144;11.424;2023-12-20T02:03:03;6.70;99.90
12276;DHT22;6200;48.144;11.424;2023-12-20T02:05:30;6.70;99.90
12276;DHT22;6200;48.144;11.424;2023-12-20T02:07:56;6.70;99.90
12276;DHT22;6200;48.144;11.424;2023-12-20T02:10:22;6.70;99.90
12276;DHT22;6200;48.144;11.424;2023-12-20T02:12:48;6.80;99.90
12276;DHT22;6200;48.144;11.424;2023-12-20T02:15:13;6.80;99.90
12276;DHT22;6200;48.144;11.424;2023-12-20T02:17:39;6.80;99.90
12276;DHT22;6200;48.144;11.424;2023-12-20T02:20:06;6.80;99.90
12276;DHT22;6200;48.144;11.424;2023-12-20T02:22:32;6.80;99.90
12276;DHT22;6200;48.144;11.424;2023-12-20T02:24:57;6.80;99.90
12276;DHT22;6200;48.144;11.424;2023-12-20T02:27:23;6.90;99.90
12276;DHT22;6200;48.144;11.424;2023-12-20T02:29:50;6.90;99.90
12276;DHT22;6200;48.144;11.424;2023-12-20T02:32:17;6.90;99.90
12276;DHT22;6200;48.144;11.424;2023-12-20T02:34:43;6.90;99.90
12276;DHT22;6200;48.144;11.424;2023-12-20T02:37:08;6.90;99.90
12276;DHT22;6200;48.144;11.424;2023-12-20T02:39:34;7.00;99.90
12276;DHT22;6200;48.144;11.424;2023-12-20T02:41:59;7.00;99.90
12276;DHT22;6200;48.144;11.424;2023-12-20T02:44:25;7.00;99.90
12276;DHT22;6200;48.144;11.424;2023-12-20T02:46:50;7.00;99.90
12276;DHT22;6200;48.144;11.424;2023-12-20T02:49:16;7.00;99.90
12276;DHT22;6200;48.144;11.424;2023-12-20T02:51:41;7.00;99.90
12276;DHT22;6200;48.144;11.424;2023-12-20T02:54:07;7.00;99.90
12276;DHT22;6200;48.144;11.424;2023-12-20T02:56:33;7.00;99.90
12276;DHT22;6200;48.144;11.424;2023-12-20T02:58:59;7.00;99.90
12276;DHT22;6200;48.144;11.424;2023-12-20T03:01:24;7.00;99.90
12276;DHT22;6200;48.144;11.424;2023-12-20T03:03:50;7.10;99.90
12276;DHT22;6200;48.144;11.424;2023-12-20T03:06:17;7.10;99.90
12276;DHT22;6200;48.144;11.424;2023-12-20T03:08:44;7.10;99.90
12276;DHT22;6200;48.144;11.424;2023-12-20T03:11:09;7.10;99.90
12276;DHT22;6200;48.144;11.424;2023-12-20T03:13:35;7.10;99.90
12276;DHT22;6200;48.144;11.424;2023-12-20T03:16:00;7.10;99.90
12276;DHT22;6200;48.144;11.424;2023-12-20T03:18:26;7.10;99.90
12276;DHT22;6200;48.144;11.424;2023-12-20T03:20:53;7.10;99.90
12276;DHT22;6200;48.144;11.424;2023-12-20T03:23:19;7.10;99.90
12276;DHT22;6200;48.144;11.424;2023-12-20T03:25:44;7.10;99.90
12276;DHT22;6200;48.144;11.424;2023-12-20T03:28:10;7.20;99.90
12276;DHT22;6200;48.144;11.424;2023-12-20T03:30:35;7.20;99.90
12276;DHT22;6200;48.144;11.424;2023-12-20T03:33:01;7.20;99.90
12276;DHT22;6200;48.144;11.424;2023-12-20T03:35:26;7.20;99.90
12276;DHT22;6200;48.144;11.424;2023-12-20T03:37:52;7.20;99.90
12276;DHT22;6200;48.144;11.424;2023-12-20T03:40:17;7.20;99.90
12276;DHT22;6200;48.144;11.424;2023-12-20T03:42:43;7.20;99.90
12276;DHT22;6200;48.144;11.424;2023-12-20T03:45:08;7.20;99.90
12276;DHT22;6200;48.144;11.424;2023-12-20T03:47:34;7.10;99.90
12276;DHT22;6200;48.144;11.424;2023-12-20T03:50:00;7.10;99.90
12276;DHT22;6200;48.144;11.424;2023-12-20T03:52:25;7.10;99.90
12276;DHT22;6200;48.144;11.424;2023-12-20T03:54:51;7.10;99.90
12276;DHT22;6200;48.144;11.424;2023-12-20T03:57:16;7.10;99.90
12276;DHT22;6200;48.144;11.424;2023-12-20T03:59:42;7.10;99.90
12276;DHT22;6200;48.144;11.424;2023-12-20T04:02:07;7.00;99.90
12276;DHT22;6200;48.144;11.424;2023-12-20T04:04:33;7.00;99.90
12276;DHT22;6200;48.144;11.424;2023-12-20T04:06:58;7.00;99.90
12276;DHT22;6200;48.144;11.424;2023-12-20T04:09:24;7.00;99.90
12276;DHT22;6200;48.144;11.424;2023-12-20T04:11:49;6.90;99.90
12276;DHT22;6200;48.144;11.424;2023-12-20T04:14:15;6.90;99.90
12276;DHT22;6200;48.144;11.424;2023-12-20T04:16:40;6.90;99.90
12276;DHT22;6200;48.144;11.424;2023-12-20T04:19:06;6.80;99.90
12276;DHT22;6200;48.144;11.424;2023-12-20T04:21:31;6.80;99.90
12276;DHT22;6200;48.144;11.424;2023-12-20T04:23:57;6.80;99.90
12276;DHT22;6200;48.144;11.424;2023-12-20T04:26:22;6.70;99.90
12276;DHT22;6200;48.144;11.424;2023-12-20T04:28:48;6.70;99.90
12276;DHT22;6200;48.144;11.424;2023-12-20T04:31:13;6.70;99.90
12276;DHT22;6200;48.144;11.424;2023-12-20T04:33:39;6.60;99.90
12276;DHT22;6200;48.144;11.424;2023-12-20T04:36:04;6.60;99.90
12276;DHT22;6200;48.144;11.424;2023-12-20T04:38:30;6.60;99.90
12276;DHT22;6200;48.144;11.424;2023-12-20T04:40:55;6.60;99.90
12276;DHT22;6200;48.144;11.424;2023-12-20T04:43:21;6.60;99.90
12276;DHT22;6200;48.144;11.424;2023-12-20T04:45:46;6.60;99.90
12276;DHT22;6200;48.144;11.424;2023-12-20T04:48:12;6.50;99.90
12276;DHT22;6200;48.144;11.424;2023-12-20T04:50:37;6.50;99.90
12276;DHT22;6200;48.144;11.424;2023-12-20T04:53:03;6.50;99.90
12276;DHT22;6200;48.144;11.424;2023-12-20T04:55:29;6.50;99.90
12276;DHT22;6200;48.144;11.424;2023-12-20T04:57:54;6.50;99.90
12276;DHT22;6200;48.144;11.424;2023-12-20T05:00:20;6.40;99.90
12276;DHT22;6200;48.144;11.424;2023-12-20T05:02:45;6.40;99.90
12276;DHT22;6200;48.144;11.424;2023-12-20T05:05:11;6.40;99.90
12276;DHT22;6200;48.144;11.424;2023-12-20T05:07:36;6.30;99.90
12276;DHT22;6200;48.144;11.424;2023-12-20T05:10:03;6.30;99.90
12276;DHT22;6200;48.144;11.424;2023-12-20T05:12:30;6.30;99.90
12276;DHT22;6200;48.144;11.424;2023-12-20T05:14:55;6.20;99.90
12276;DHT22;6200;48.144;11.424;2023-12-20T05:17:21;6.20;99.90
12276;DHT22;6200;48.144;11.424;2023-12-20T05:19:46;6.20;99.90
12276;DHT22;6200;48.144;11.424;2023-12-20T05:22:13;6.20;99.90
12276;DHT22;6200;48.144;11.424;2023-12-20T05:24:39;6.10;99.90
12276;DHT22;6200;48.144;11.424;2023-12-20T05:27:04;6.10;99.90
12276;DHT22;6200;48.144;11.424;2023-12-20T05:29:30;6.00;99.90
12276;DHT22;6200;48.144;11.424;2023-12-20T05:31:57;6.10;99.90
12276;DHT22;6200;48.144;11.424;2023-12-20T05:34:23;6.00;99.90
12276;DHT22;6200;48.144;11.424;2023-12-20T05:36:48;6.00;99.90
12276;DHT22;6200;48.144;11.424;2023-12-20T05:39:14;6.00;99.90
12276;DHT22;6200;48.144;11.424;2023-12-20T05:41:39;6.00;99.90
12276;DHT22;6200;48.144;11.424;2023-12-20T05:44:05;5.90;99.90
12276;DHT22;6200;48.144;11.424;2023-12-20T05:46:30;5.90;99.90
12276;DHT22;6200;48.144;11.424;2023-12-20T05:48:56;5.90;99.90
12276;DHT22;6200;48.144;11.424;2023-12-20T05:51:21;5.80;99.90
12276;DHT22;6200;48.144;11.424;2023-12-20T05:53:47;5.80;99.90
12276;DHT22;6200;48.144;11.424;2023-12-20T05:56:15;5.80;99.90
12276;DHT22;6200;48.144;11.424;2023-12-20T05:58:41;5.80;99.90
12276;DHT22;6200;48.144;11.424;2023-12-20T06:01:06;5.70;99.90
12276;DHT22;6200;48.144;11.424;2023-12-20T06:03:33;5.70;99.90
12276;DHT22;6200;48.144;11.424;2023-12-20T06:06:03;5.70;99.90
12276;DHT22;6200;48.144;11.424;2023-12-20T06:08:29;5.70;99.90
12276;DHT22;6200;48.144;11.424;2023-12-20T06:10:54;5.60;99.90
12276;DHT22;6200;48.144;11.424;2023-12-20T06:13:20;5.60;99.90
12276;DHT22;6200;48.144;11.424;2023-12-20T06:15:46;5.60;99.90
12276;DHT22;6200;48.144;11.424;2023-12-20T06:18:11;5.50;99.90
12276;DHT22;6200;48.144;11.424;2023-12-20T06:20:36;5.50;99.90
12276;DHT22;6200;48.144;11.424;2023-12-20T06:23:02;5.50;99.90
12276;DHT22;6200;48.144;11.424;2023-12-20T06:25:28;5.50;99.90
12276;DHT22;6200;48.144;11.424;2023-12-20T06:27:53;5.40;99.90
12276;DHT22;6200;48.144;11.424;2023-12-20T06:30:19;5.40;99.90
12276;DHT22;6200;48.144;11.424;2023-12-20T06:32:44;5.40;99.90
12276;DHT22;6200;48.144;11.424;2023-12-20T06:35:12;5.80;99.90
12276;DHT22;6200;48.144;11.424;2023-12-20T06:37:37;5.40;99.90
12276;DHT22;6200;48.144;11.424;2023-12-20T06:40:03;5.40;99.90
12276;DHT22;6200;48.144;11.424;2023-12-20T06:42:29;5.30;99.90
12276;DHT22;6200;48.144;11.424;2023-12-20T06:44:55;5.30;99.90
12276;DHT22;6200;48.144;11.424;2023-12-20T06:47:20;5.30;99.90
12276;DHT22;6200;48.144;11.424;2023-12-20T06:49:46;5.30;99.90
12276;DHT22;6200;48.144;11.424;2023-12-20T06:52:11;5.30;99.90
12276;DHT22;6200;48.144;11.424;2023-12-20T06:54:37;5.30;99.90
12276;DHT22;6200;48.144;11.424;2023-12-20T06:57:02;5.30;99.90
12276;DHT22;6200;48.144;11.424;2023-12-20T06:59:29;5.20;99.90
12276;DHT22;6200;48.144;11.424;2023-12-20T07:01:55;5.20;99.90
12276;DHT22;6200;48.144;11.424;2023-12-20T07:04:20;5.20;99.90
12276;DHT22;6200;48.144;11.424;2023-12-20T07:06:48;5.10;99.90
12276;DHT22;6200;48.144;11.424;2023-12-20T07:09:14;5.10;99.90
12276;DHT22;6200;48.144;11.424;2023-12-20T07:11:39;5.10;99.90
12276;DHT22;6200;48.144;11.424;2023-12-20T07:14:05;5.10;99.90
12276;DHT22;6200;48.144;11.424;2023-12-20T07:16:30;5.10;99.90
12276;DHT22;6200;48.144;11.424;2023-12-20T07:18:56;5.00;99.90
12276;DHT22;6200;48.144;11.424;2023-12-20T07:21:22;5.10;99.90
12276;DHT22;6200;48.144;11.424;2023-12-20T07:23:48;5.10;99.90
12276;DHT22;6200;48.144;11.424;2023-12-20T07:26:13;5.10;99.90
12276;DHT22;6200;48.144;11.424;2023-12-20T07:28:39;5.10;99.90
12276;DHT22;6200;48.144;11.424;2023-12-20T07:31:06;5.10;99.90
12276;DHT22;6200;48.144;11.424;2023-12-20T07:33:31;5.10;99.90
12276;DHT22;6200;48.144;11.424;2023-12-20T07:35:57;5.10;99.90
12276;DHT22;6200;48.144;11.424;2023-12-20T07:38:22;5.00;99.90
12276;DHT22;6200;48.144;11.424;2023-12-20T07:40:48;5.00;99.90
12276;DHT22;6200;48.144;11.424;2023-12-20T07:43:13;5.00;99.90
12276;DHT22;6200;48.144;11.424;2023-12-20T07:45:39;5.10;99.90
12276;DHT22;6200;48.144;11.424;2023-12-20T07:48:05;5.00;99.90
12276;DHT22;6200;48.144;11.424;2023-12-20T07:50:31;5.00;99.90
12276;DHT22;6200;48.144;11.424;2023-12-20T07:52:56;5.10;99.90
12276;DHT22;6200;48.144;11.424;2023-12-20T07:55:24;5.00;99.90
12276;DHT22;6200;48.144;11.424;2023-12-20T07:57:50;5.10;99.90
12276;DHT22;6200;48.144;11.424;2023-12-20T08:00:16;5.00;99.90
12276;DHT22;6200;48.144;11.424;2023-12-20T08:02:41;5.00;99.90
12276;DHT22;6200;48.144;11.424;2023-12-20T08:05:07;5.00;99.90
12276;DHT22;6200;48.144;11.424;2023-12-20T08:07:33;5.10;99.90
12276;DHT22;6200;48.144;11.424;2023-12-20T08:09:58;5.10;99.90
12276;DHT22;6200;48.144;11.424;2023-12-20T08:12:24;5.10;99.90
12276;DHT22;6200;48.144;11.424;2023-12-20T08:14:53;5.10;99.90
12276;DHT22;6200;48.144;11.424;2023-12-20T08:17:18;5.10;99.90
12276;DHT22;6200;48.144;11.424;2023-12-20T08:19:44;5.10;99.90
12276;DHT22;6200;48.144;11.424;2023-12-20T08:22:10;5.10;99.90
12276;DHT22;6200;48.144;11.424;2023-12-20T08:24:36;5.10;99.90
12276;DHT22;6200;48.144;11.424;2023-12-20T08:27:02;5.10;99.90
12276;DHT22;6200;48.144;11.424;2023-12-20T08:29:27;5.10;99.90
12276;DHT22;6200;48.144;11.424;2023-12-20T08:31:53;5.00;99.90
12276;DHT22;6200;48.144;11.424;2023-12-20T08:34:22;5.10;99.90
12276;DHT22;6200;48.144;11.424;2023-12-20T08:36:49;5.10;99.90
12276;DHT22;6200;48.144;11.424;2023-12-20T08:39:15;5.10;99.90
12276;DHT22;6200;48.144;11.424;2023-12-20T08:41:40;5.00;99.90
12276;DHT22;6200;48.144;11.424;2023-12-20T08:44:06;5.10;99.90
12276;DHT22;6200;48.144;11.424;2023-12-20T08:46:31;5.10;99.90
12276;DHT22;6200;48.144;11.424;2023-12-20T08:48:57;5.10;99.90
12276;DHT22;6200;48.144;11.424;2023-12-20T08:51:23;5.20;99.90
12276;DHT22;6200;48.144;11.424;2023-12-20T08:53:51;5.20;99.90
12276;DHT22;6200;48.144;11.424;2023-12-20T08:56:16;5.20;99.90
12276;DHT22;6200;48.144;11.424;2023-12-20T08:58:43;5.30;99.90
12276;DHT22;6200;48.144;11.424;2023-12-20T09:01:09;5.30;99.90
12276;DHT22;6200;48.144;11.424;2023-12-20T09:03:34;5.30;99.90
12276;DHT22;6200;48.144;11.424;2023-12-20T09:06:00;5.30;99.90
12276;DHT22;6200;48.144;11.424;2023-12-20T09:08:25;5.30;99.90
12276;DHT22;6200;48.144;11.424;2023-12-20T09:10:51;5.40;99.90
12276;DHT22;6200;48.144;11.424;2023-12-20T09:13:17;5.40;99.90
12276;DHT22;6200;48.144;11.424;2023-12-20T09:15:42;5.50;99.90
12276;DHT22;6200;48.144;11.424;2023-12-20T09:18:08;5.50;99.90
12276;DHT22;6200;48.144;11.424;2023-12-20T09:20:34;5.50;99.90
12276;DHT22;6200;48.144;11.424;2023-12-20T09:22:59;5.50;99.90
12276;DHT22;6200;48.144;11.424;2023-12-20T09:25:25;5.50;99.90
12276;DHT22;6200;48.144;11.424;2023-12-20T09:27:51;5.50;99.90
12276;DHT22;6200;48.144;11.424;2023-12-20T09:30:18;5.50;99.90
12276;DHT22;6200;48.144;11.424;2023-12-20T09:32:43;5.50;99.90
12276;DHT22;6200;48.144;11.424;2023-12-20T09:35:09;5.50;99.90
12276;DHT22;6200;48.144;11.424;2023-12-20T09:37:34;5.50;99.90
12276;DHT22;6200;48.144;11.424;2023-12-20T09:40:00;5.50;99.90
12276;DHT22;6200;48.144;11.424;2023-12-20T09:42:58;5.50;99.90
12276;DHT22;6200;48.144;11.424;2023-12-20T09:45:24;5.60;99.90
12276;DHT22;6200;48.144;11.424;2023-12-20T09:47:53;5.50;99.90
12276;DHT22;6200;48.144;11.424;2023-12-20T09:50:20;5.50;99.90
12276;DHT22;6200;48.144;11.424;2023-12-20T09:52:50;5.50;99.90
12276;DHT22;6200;48.144;11.424;2023-12-20T09:55:17;5.40;99.90
12276;DHT22;6200;48.144;11.424;2023-12-20T09:57:43;5.50;99.90
12276;DHT22;6200;48.144;11.424;2023-12-20T10:00:09;5.50;99.90
12276;DHT22;6200;48.144;11.424;2023-12-20T10:02:36;5.60;99.90
12276;DHT22;6200;48.144;11.424;2023-12-20T10:05:06;5.60;99.90
12276;DHT22;6200;48.144;11.424;2023-12-20T10:07:34;5.70;99.90
12276;DHT22;6200;48.144;11.424;2023-12-20T10:10:01;5.80;99.90
12276;DHT22;6200;48.144;11.424;2023-12-20T10:12:27;6.00;99.90
12276;DHT22;6200;48.144;11.424;2023-12-20T10:14:53;6.10;99.90
12276;DHT22;6200;48.144;11.424;2023-12-20T10:17:18;6.20;99.90
12276;DHT22;6200;48.144;11.424;2023-12-20T10:19:44;6.30;99.90
12276;DHT22;6200;48.144;11.424;2023-12-20T10:22:10;6.40;99.90
12276;DHT22;6200;48.144;11.424;2023-12-20T10:24:36;6.40;99.90
12276;DHT22;6200;48.144;11.424;2023-12-20T10:27:03;6.40;99.90
12276;DHT22;6200;48.144;11.424;2023-12-20T10:29:37;6.40;99.90
12276;DHT22;6200;48.144;11.424;2023-12-20T10:32:25;6.40;99.90
12276;DHT22;6200;48.144;11.424;2023-12-20T10:34:52;6.30;99.90
12276;DHT22;6200;48.144;11.424;2023-12-20T10:37:18;6.30;99.90
12276;DHT22;6200;48.144;11.424;2023-12-20T10:39:44;6.30;99.90
12276;DHT22;6200;48.144;11.424;2023-12-20T10:42:12;6.30;99.90
12276;DHT22;6200;48.144;11.424;2023-12-20T10:44:38;6.20;99.90
12276;DHT22;6200;48.144;11.424;2023-12-20T10:47:04;6.20;99.90
12276;DHT22;6200;48.144;11.424;2023-12-20T10:49:31;6.20;99.90
12276;DHT22;6200;48.144;11.424;2023-12-20T10:52:02;6.10;99.90
12276;DHT22;6200;48.144;11.424;2023-12-20T10:54:29;6.10;99.90
12276;DHT22;6200;48.144;11.424;2023-12-20T10:56:57;6.10;99.90
12276;DHT22;6200;48.144;11.424;2023-12-20T10:59:24;6.00;99.90
12276;DHT22;6200;48.144;11.424;2023-12-20T11:01:50;6.00;99.90
12276;DHT22;6200;48.144;11.424;2023-12-20T11:04:21;6.00;99.90
12276;DHT22;6200;48.144;11.424;2023-12-20T11:06:53;6.00;99.90
12276;DHT22;6200;48.144;11.424;2023-12-20T11:12:13;6.00;99.90
12276;DHT22;6200;48.144;11.424;2023-12-20T11:14:50;6.00;99.90
12276;DHT22;6200;48.144;11.424;2023-12-20T11:17:16;6.10;99.90
12276;DHT22;6200;48.144;11.424;2023-12-20T11:22:27;6.10;99.90
12276;DHT22;6200;48.144;11.424;2023-12-20T11:25:06;6.20;99.90
12276;DHT22;6200;48.144;11.424;2023-12-20T11:27:35;6.20;99.90
12276;DHT22;6200;48.144;11.424;2023-12-20T11:30:03;6.20;99.90
12276;DHT22;6200;48.144;11.424;2023-12-20T11:32:34;6.30;99.90
12276;DHT22;6200;48.144;11.424;2023-12-20T11:35:01;6.30;99.90
12276;DHT22;6200;48.144;11.424;2023-12-20T11:37:41;6.30;99.90
12276;DHT22;6200;48.144;11.424;2023-12-20T11:40:17;6.40;99.90
12276;DHT22;6200;48.144;11.424;2023-12-20T11:42:49;6.50;99.90
12276;DHT22;6200;48.144;11.424;2023-12-20T11:45:23;6.60;99.90
12276;DHT22;6200;48.144;11.424;2023-12-20T11:47:50;6.60;99.90
12276;DHT22;6200;48.144;11.424;2023-12-20T11:50:16;6.70;99.90
12276;DHT22;6200;48.144;11.424;2023-12-20T11:52:43;6.70;99.90
12276;DHT22;6200;48.144;11.424;2023-12-20T11:55:08;6.80;99.90
12276;DHT22;6200;48.144;11.424;2023-12-20T11:57:34;6.70;99.90
12276;DHT22;6200;48.144;11.424;2023-12-20T12:00:02;6.80;99.90
12276;DHT22;6200;48.144;11.424;2023-12-20T12:02:28;6.80;99.90
12276;DHT22;6200;48.144;11.424;2023-12-20T12:04:53;6.80;99.90
12276;DHT22;6200;48.144;11.424;2023-12-20T12:07:20;6.70;99.90
12276;DHT22;6200;48.144;11.424;2023-12-20T12:09:45;6.80;99.90
12276;DHT22;6200;48.144;11.424;2023-12-20T12:12:12;6.80;99.90
12276;DHT22;6200;48.144;11.424;2023-12-20T12:14:38;6.90;99.90
12276;DHT22;6200;48.144;11.424;2023-12-20T12:17:13;6.90;99.90
12276;DHT22;6200;48.144;11.424;2023-12-20T12:19:39;6.80;99.90
12276;DHT22;6200;48.144;11.424;2023-12-20T12:22:10;6.80;99.90
12276;DHT22;6200;48.144;11.424;2023-12-20T12:24:39;6.80;99.90
12276;DHT22;6200;48.144;11.424;2023-12-20T12:27:07;6.70;99.90
12276;DHT22;6200;48.144;11.424;2023-12-20T12:29:34;6.70;99.90
12276;DHT22;6200;48.144;11.424;2023-12-20T12:32:00;6.70;99.90
12276;DHT22;6200;48.144;11.424;2023-12-20T12:34:27;6.70;99.90
12276;DHT22;6200;48.144;11.424;2023-12-20T12:36:53;6.60;99.90
12276;DHT22;6200;48.144;11.424;2023-12-20T12:39:19;6.60;99.90
12276;DHT22;6200;48.144;11.424;2023-12-20T12:41:45;6.60;99.90
12276;DHT22;6200;48.144;11.424;2023-12-20T12:44:10;6.60;99.90
12276;DHT22;6200;48.144;11.424;2023-12-20T12:46:36;6.60;99.90
12276;DHT22;6200;48.144;11.424;2023-12-20T12:49:01;6.60;99.90
12276;DHT22;6200;48.144;11.424;2023-12-20T12:51:27;6.60;99.90
12276;DHT22;6200;48.144;11.424;2023-12-20T12:53:53;6.50;99.90
12276;DHT22;6200;48.144;11.424;2023-12-20T12:56:19;6.50;99.90
12276;DHT22;6200;48.144;11.424;2023-12-20T12:58:44;6.50;99.90
12276;DHT22;6200;48.144;11.424;2023-12-20T13:01:10;6.40;99.90
12276;DHT22;6200;48.144;11.424;2023-12-20T13:03:36;6.20;99.90
12276;DHT22;6200;48.144;11.424;2023-12-20T13:06:02;6.10;99.90
12276;DHT22;6200;48.144;11.424;2023-12-20T13:08:28;6.00;99.90
12276;DHT22;6200;48.144;11.424;2023-12-20T13:10:54;5.90;99.90
12276;DHT22;6200;48.144;11.424;2023-12-20T13:13:20;5.90;99.90
12276;DHT22;6200;48.144;11.424;2023-12-20T13:15:46;5.80;99.90
12276;DHT22;6200;48.144;11.424;2023-12-20T13:18:16;5.80;99.90
12276;DHT22;6200;48.144;11.424;2023-12-20T13:20:43;5.70;99.90
12276;DHT22;6200;48.144;11.424;2023-12-20T13:23:09;5.70;99.90
12276;DHT22;6200;48.144;11.424;2023-12-20T13:25:34;5.60;99.90
12276;DHT22;6200;48.144;11.424;2023-12-20T13:28:00;5.60;99.90
12276;DHT22;6200;48.144;11.424;2023-12-20T13:30:25;5.50;99.90
12276;DHT22;6200;48.144;11.424;2023-12-20T13:32:51;5.50;99.90
12276;DHT22;6200;48.144;11.424;2023-12-20T13:35:16;5.50;99.90
12276;DHT22;6200;48.144;11.424;2023-12-20T13:37:42;5.50;99.90
12276;DHT22;6200;48.144;11.424;2023-12-20T13:40:08;5.50;99.90
12276;DHT22;6200;48.144;11.424;2023-12-20T13:42:33;5.50;99.90
12276;DHT22;6200;48.144;11.424;2023-12-20T13:44:59;5.50;99.90
12276;DHT22;6200;48.144;11.424;2023-12-20T13:47:25;5.50;99.90
12276;DHT22;6200;48.144;11.424;2023-12-20T13:49:50;5.60;99.90
12276;DHT22;6200;48.144;11.424;2023-12-20T13:52:16;5.60;99.90
12276;DHT22;6200;48.144;11.424;2023-12-20T13:54:41;5.60;99.90
12276;DHT22;6200;48.144;11.424;2023-12-20T13:57:07;5.60;99.90
12276;DHT22;6200;48.144;11.424;2023-12-20T13:59:32;5.60;99.90
12276;DHT22;6200;48.144;11.424;2023-12-20T14:01:58;5.50;99.90
12276;DHT22;6200;48.144;11.424;2023-12-20T14:04:23;5.50;99.90
12276;DHT22;6200;48.144;11.424;2023-12-20T14:06:49;5.50;99.90
12276;DHT22;6200;48.144;11.424;2023-12-20T14:09:14;5.50;99.90
12276;DHT22;6200;48.144;11.424;2023-12-20T14:11:41;5.50;99.90
12276;DHT22;6200;48.144;11.424;2023-12-20T14:14:07;5.50;99.90
12276;DHT22;6200;48.144;11.424;2023-12-20T14:16:34;5.50;99.90
12276;DHT22;6200;48.144;11.424;2023-12-20T14:19:00;5.50;99.90
12276;DHT22;6200;48.144;11.424;2023-12-20T14:21:26;5.50;99.90
12276;DHT22;6200;48.144;11.424;2023-12-20T14:23:51;5.50;99.90
12276;DHT22;6200;48.144;11.424;2023-12-20T14:26:17;5.50;99.90
12276;DHT22;6200;48.144;11.424;2023-12-20T14:28:43;5.50;99.90
12276;DHT22;6200;48.144;11.424;2023-12-20T14:31:09;5.50;99.90
12276;DHT22;6200;48.144;11.424;2023-12-20T14:33:36;5.40;99.90
12276;DHT22;6200;48.144;11.424;2023-12-20T14:36:03;5.50;99.90
12276;DHT22;6200;48.144;11.424;2023-12-20T14:38:33;5.40;99.90
12276;DHT22;6200;48.144;11.424;2023-12-20T14:40:58;5.40;99.90
12276;DHT22;6200;48.144;11.424;2023-12-20T14:43:25;5.40;99.90
12276;DHT22;6200;48.144;11.424;2023-12-20T14:45:51;5.40;99.90
12276;DHT22;6200;48.144;11.424;2023-12-20T14:48:17;5.40;99.90
12276;DHT22;6200;48.144;11.424;2023-12-20T14:50:44;6.50;99.90
12276;DHT22;6200;48.144;11.424;2023-12-20T14:53:09;5.40;99.90
12276;DHT22;6200;48.144;11.424;2023-12-20T14:55:35;5.40;99.90
12276;DHT22;6200;48.144;11.424;2023-12-20T14:58:01;5.40;99.90
12276;DHT22;6200;48.144;11.424;2023-12-20T15:00:27;5.40;99.90
12276;DHT22;6200;48.144;11.424;2023-12-20T15:02:52;5.40;99.90
12276;DHT22;6200;48.144;11.424;2023-12-20T15:05:21;5.40;99.90
12276;DHT22;6200;48.144;11.424;2023-12-20T15:07:46;5.30;99.90
12276;DHT22;6200;48.144;11.424;2023-12-20T15:10:15;5.30;99.90
12276;DHT22;6200;48.144;11.424;2023-12-20T15:12:42;5.30;99.90
12276;DHT22;6200;48.144;11.424;2023-12-20T15:15:08;5.20;99.90
12276;DHT22;6200;48.144;11.424;2023-12-20T15:17:35;5.20;99.90
12276;DHT22;6200;48.144;11.424;2023-12-20T15:20:02;5.20;99.90
12276;DHT22;6200;48.144;11.424;2023-12-20T15:22:27;5.20;99.90
12276;DHT22;6200;48.144;11.424;2023-12-20T15:24:53;5.20;99.90
12276;DHT22;6200;48.144;11.424;2023-12-20T15:27:20;5.20;99.90
12276;DHT22;6200;48.144;11.424;2023-12-20T15:29:45;5.10;99.90
12276;DHT22;6200;48.144;11.424;2023-12-20T15:32:11;5.10;99.90
12276;DHT22;6200;48.144;11.424;2023-12-20T15:34:37;5.10;99.90
12276;DHT22;6200;48.144;11.424;2023-12-20T15:37:02;5.10;99.90
12276;DHT22;6200;48.144;11.424;2023-12-20T15:39:28;5.10;99.90
12276;DHT22;6200;48.144;11.424;2023-12-20T15:41:53;5.10;99.90
12276;DHT22;6200;48.144;11.424;2023-12-20T15:44:19;5.10;99.90